createdAt,value
2018-12-05T00:00:22.185Z,5.37
2018-12-05T00:01:22.170Z,5.33
2018-12-05T00:02:22.159Z,5.33
2018-12-05T00:03:22.174Z,5.40
2018-12-05T00:04:22.142Z,5.41
2018-12-05T00:05:22.131Z,5.38
2018-12-05T00:06:22.116Z,5.35
2018-12-05T00:07:22.109Z,5.42
2018-12-05T00:08:22.119Z,5.35
2018-12-05T00:09:22.082Z,5.32
2018-12-05T00:10:22.073Z,5.30
2018-12-05T00:11:22.060Z,5.19
2018-12-05T00:12:22.050Z,5.19
2018-12-05T00:13:22.043Z,5.20
2018-12-05T00:14:22.055Z,5.20
2018-12-05T00:15:22.027Z,5.15
2018-12-05T00:16:22.012Z,5.15
2018-12-05T00:17:21.998Z,5.19
2018-12-05T00:18:21.984Z,5.15
2018-12-05T00:19:21.997Z,5.17
2018-12-05T00:20:21.960Z,5.06
2018-12-05T00:21:21.953Z,5.05
2018-12-05T00:22:21.942Z,5.05
2018-12-05T00:23:21.934Z,5.04
2018-12-05T00:24:21.943Z,5.02
2018-12-05T00:25:21.905Z,5.14
2018-12-05T00:26:21.894Z,5.12
2018-12-05T00:27:21.882Z,5.08
2018-12-05T00:28:21.871Z,5.09
2018-12-05T00:29:21.892Z,5.15
2018-12-05T00:30:21.852Z,5.19
2018-12-05T00:31:21.839Z,5.17
2018-12-05T00:32:21.826Z,5.08
2018-12-05T00:33:21.816Z,5.08
2018-12-05T00:34:21.830Z,5.11
2018-12-05T00:35:21.801Z,5.19
2018-12-05T00:36:21.783Z,5.22
2018-12-05T00:37:21.770Z,5.22
2018-12-05T00:38:21.761Z,5.33
2018-12-05T00:39:21.775Z,5.26
2018-12-05T00:40:21.860Z,5.24
2018-12-05T00:41:21.729Z,5.24
2018-12-05T00:42:21.717Z,5.29
2018-12-05T00:43:21.708Z,5.32
2018-12-05T00:44:21.717Z,5.17
2018-12-05T00:45:21.687Z,5.19
2018-12-05T00:46:21.670Z,5.19
2018-12-05T00:47:21.660Z,5.22
2018-12-05T00:48:21.653Z,5.19
2018-12-05T00:49:21.661Z,5.19
2018-12-05T00:50:21.627Z,5.20
2018-12-05T00:51:21.616Z,5.19
2018-12-05T00:52:21.604Z,5.20
2018-12-05T00:53:21.671Z,5.14
2018-12-05T00:54:21.608Z,5.14
2018-12-05T00:55:21.574Z,5.11
2018-12-05T00:56:21.559Z,5.11
2018-12-05T00:57:21.550Z,5.14
2018-12-05T00:58:21.537Z,5.12
2018-12-05T00:59:21.553Z,5.11
2018-12-05T01:00:21.515Z,5.12
2018-12-05T01:01:21.507Z,5.12
2018-12-05T01:02:21.492Z,5.12
2018-12-05T01:03:21.482Z,5.09
2018-12-05T01:04:21.497Z,5.05
2018-12-05T01:05:21.533Z,4.96
2018-12-05T01:06:21.451Z,4.88
2018-12-05T01:07:21.440Z,4.96
2018-12-05T01:08:21.427Z,5.01
2018-12-05T01:09:21.448Z,4.96
2018-12-05T01:10:21.409Z,4.91
2018-12-05T01:11:21.394Z,5.01
2018-12-05T01:12:21.385Z,5.01
2018-12-05T01:13:21.373Z,5.11
2018-12-05T01:14:21.363Z,5.08
2018-12-05T01:15:21.374Z,5.09
2018-12-05T01:16:21.338Z,5.08
2018-12-05T01:17:21.332Z,5.14
2018-12-05T01:18:21.346Z,5.08
2018-12-05T01:19:21.309Z,5.08
2018-12-05T01:20:21.319Z,5.12
2018-12-05T01:21:21.287Z,5.08
2018-12-05T01:22:21.270Z,5.09
2018-12-05T01:23:21.259Z,5.14
2018-12-05T01:24:21.252Z,5.11
2018-12-05T01:25:21.265Z,5.12
2018-12-05T01:26:21.229Z,5.12
2018-12-05T01:27:21.219Z,5.11
2018-12-05T01:28:21.207Z,5.14
2018-12-05T01:29:21.193Z,5.12
2018-12-05T01:30:21.208Z,5.12
2018-12-05T01:31:21.171Z,5.09
2018-12-05T01:32:21.158Z,5.17
2018-12-05T01:33:21.153Z,5.14
2018-12-05T01:34:21.140Z,5.15
2018-12-05T01:35:21.160Z,5.12
2018-12-05T01:36:21.113Z,5.08
2018-12-05T01:37:21.103Z,5.08
2018-12-05T01:38:21.091Z,5.14
2018-12-05T01:39:21.079Z,5.11
2018-12-05T01:40:21.106Z,5.12
2018-12-05T01:41:21.064Z,5.08
2018-12-05T01:42:21.047Z,5.04
2018-12-05T01:43:21.039Z,5.06
2018-12-05T01:44:21.027Z,5.02
2018-12-05T01:45:21.040Z,4.93
2018-12-05T01:46:21.007Z,5.04
2018-12-05T01:47:20.999Z,5.11
2018-12-05T01:48:20.982Z,4.96
2018-12-05T01:49:20.975Z,5.08
2018-12-05T01:50:20.984Z,5.06
2018-12-05T01:51:20.946Z,5.05
2018-12-05T01:52:20.939Z,5.08
2018-12-05T01:53:20.926Z,5.15
2018-12-05T01:54:20.916Z,5.22
2018-12-05T01:55:20.925Z,5.19
2018-12-05T01:56:20.892Z,5.19
2018-12-05T01:57:20.886Z,5.20
2018-12-05T01:58:20.874Z,5.22
2018-12-05T01:59:20.857Z,5.22
2018-12-05T02:00:20.879Z,5.19
2018-12-05T02:01:20.835Z,5.24
2018-12-05T02:02:20.822Z,5.17
2018-12-05T02:03:20.812Z,5.24
2018-12-05T02:04:20.806Z,5.22
2018-12-05T02:05:20.820Z,5.14
2018-12-05T02:06:20.778Z,5.17
2018-12-05T02:07:20.769Z,5.22
2018-12-05T02:08:20.756Z,5.26
2018-12-05T02:09:20.745Z,5.26
2018-12-05T02:10:20.736Z,5.30
2018-12-05T02:11:20.749Z,5.29
2018-12-05T02:12:20.711Z,5.38
2018-12-05T02:13:20.700Z,5.30
2018-12-05T02:14:20.702Z,5.37
2018-12-05T02:15:20.688Z,5.24
2018-12-05T02:16:20.700Z,5.33
2018-12-05T02:17:20.655Z,5.24
2018-12-05T02:18:20.647Z,5.27
2018-12-05T02:19:20.635Z,5.29
2018-12-05T02:20:20.626Z,5.19
2018-12-05T02:21:20.639Z,5.30
2018-12-05T02:22:20.605Z,5.22
2018-12-05T02:23:20.592Z,5.19
2018-12-05T02:24:20.585Z,5.14
2018-12-05T02:25:20.565Z,5.06
2018-12-05T02:26:20.581Z,5.05
2018-12-05T02:27:20.550Z,5.12
2018-12-05T02:28:20.535Z,5.08
2018-12-05T02:29:20.526Z,5.09
2018-12-05T02:30:20.518Z,5.01
2018-12-05T02:31:20.523Z,5.02
2018-12-05T02:32:20.487Z,4.96
2018-12-05T02:33:20.478Z,4.86
2018-12-05T02:34:20.470Z,4.90
2018-12-05T02:35:20.454Z,4.86
2018-12-05T02:36:20.468Z,4.83
2018-12-05T02:37:20.432Z,4.80
2018-12-05T02:38:20.423Z,4.87
2018-12-05T02:39:20.412Z,4.79
2018-12-05T02:40:20.401Z,4.77
2018-12-05T02:41:20.423Z,4.68
2018-12-05T02:42:20.427Z,4.79
2018-12-05T02:43:20.362Z,4.80
2018-12-05T02:44:20.352Z,4.79
2018-12-05T02:45:20.344Z,4.84
2018-12-05T02:46:20.364Z,4.79
2018-12-05T02:47:20.319Z,4.87
2018-12-05T02:48:20.312Z,4.90
2018-12-05T02:49:20.309Z,4.90
2018-12-05T02:50:20.294Z,4.87
2018-12-05T02:51:20.298Z,4.91
2018-12-05T02:52:20.269Z,4.91
2018-12-05T02:53:20.249Z,4.94
2018-12-05T02:54:20.239Z,4.91
2018-12-05T02:55:20.232Z,4.93
2018-12-05T02:56:20.250Z,4.94
2018-12-05T02:57:20.208Z,5.02
2018-12-05T02:58:20.195Z,4.94
2018-12-05T02:59:20.185Z,4.94
2018-12-05T03:00:20.173Z,4.93
2018-12-05T03:01:20.186Z,5.04
2018-12-05T03:02:20.156Z,5.01
2018-12-05T03:03:20.140Z,5.01
2018-12-05T03:04:20.130Z,5.01
2018-12-05T03:05:20.120Z,5.05
2018-12-05T03:06:20.133Z,5.02
2018-12-05T03:07:20.095Z,4.96
2018-12-05T03:08:20.088Z,4.97
2018-12-05T03:09:20.082Z,4.80
2018-12-05T03:10:20.067Z,4.87
2018-12-05T03:11:20.055Z,4.91
2018-12-05T03:12:20.070Z,4.90
2018-12-05T03:13:20.028Z,4.91
2018-12-05T03:14:20.025Z,4.80
2018-12-05T03:15:20.008Z,4.68
2018-12-05T03:16:19.999Z,4.62
2018-12-05T03:17:20.012Z,4.71
2018-12-05T03:18:19.974Z,4.74
2018-12-05T03:19:19.959Z,4.67
2018-12-05T03:20:19.948Z,4.69
2018-12-05T03:21:19.945Z,4.79
2018-12-05T03:22:19.950Z,4.68
2018-12-05T03:23:19.918Z,4.65
2018-12-05T03:24:19.904Z,4.75
2018-12-05T03:25:19.898Z,4.77
2018-12-05T03:26:19.882Z,4.72
2018-12-05T03:27:19.893Z,4.75
2018-12-05T03:28:19.858Z,4.72
2018-12-05T03:29:19.849Z,4.84
2018-12-05T03:30:19.853Z,4.75
2018-12-05T03:31:19.825Z,4.69
2018-12-05T03:32:19.841Z,4.69
2018-12-05T03:33:19.804Z,4.84
2018-12-05T03:34:19.792Z,4.83
2018-12-05T03:35:19.786Z,4.75
2018-12-05T03:36:19.785Z,4.75
2018-12-05T03:37:19.782Z,4.79
2018-12-05T03:38:19.772Z,4.72
2018-12-05T03:39:19.751Z,4.72
2018-12-05T03:40:19.724Z,4.69
2018-12-05T03:41:19.715Z,4.72
2018-12-05T03:42:19.726Z,4.79
2018-12-05T03:43:19.695Z,4.65
2018-12-05T03:44:19.685Z,4.69
2018-12-05T03:45:19.673Z,4.65
2018-12-05T03:46:19.657Z,4.79
2018-12-05T03:47:19.670Z,4.79
2018-12-05T03:48:19.635Z,4.80
2018-12-05T03:49:19.622Z,4.83
2018-12-05T03:50:19.618Z,4.80
2018-12-05T03:51:19.602Z,4.77
2018-12-05T03:52:19.619Z,4.79
2018-12-05T03:53:19.581Z,4.86
2018-12-05T03:54:19.569Z,4.67
2018-12-05T03:55:20.233Z,4.62
2018-12-05T03:56:19.545Z,4.71
2018-12-05T03:57:19.562Z,4.71
2018-12-05T03:58:19.525Z,4.71
2018-12-05T03:59:19.515Z,4.69
2018-12-05T04:00:19.502Z,4.64
2018-12-05T04:01:19.499Z,4.65
2018-12-05T04:02:19.505Z,4.64
2018-12-05T04:03:19.468Z,4.64
2018-12-05T04:04:19.458Z,4.67
2018-12-05T04:05:19.448Z,4.71
2018-12-05T04:06:19.433Z,4.72
2018-12-05T04:07:19.446Z,4.68
2018-12-05T04:08:19.418Z,4.67
2018-12-05T04:09:19.400Z,4.67
2018-12-05T04:10:19.388Z,4.79
2018-12-05T04:11:19.376Z,4.77
2018-12-05T04:12:19.367Z,4.68
2018-12-05T04:13:19.379Z,4.72
2018-12-05T04:14:19.350Z,4.71
2018-12-05T04:15:19.333Z,4.72
2018-12-05T04:16:19.319Z,4.71
2018-12-05T04:17:19.329Z,4.69
2018-12-05T04:18:19.330Z,4.72
2018-12-05T04:19:19.288Z,4.74
2018-12-05T04:20:19.278Z,4.64
2018-12-05T04:21:19.267Z,4.75
2018-12-05T04:22:19.257Z,4.72
2018-12-05T04:23:19.267Z,4.68
2018-12-05T04:24:19.232Z,4.71
2018-12-05T04:25:19.222Z,4.71
2018-12-05T04:26:19.213Z,4.64
2018-12-05T04:27:19.200Z,4.57
2018-12-05T04:28:19.217Z,4.59
2018-12-05T04:29:19.175Z,4.61
2018-12-05T04:30:19.177Z,4.62
2018-12-05T04:31:19.154Z,4.59
2018-12-05T04:32:19.141Z,4.59
2018-12-05T04:33:19.154Z,4.64
2018-12-05T04:34:19.121Z,4.62
2018-12-05T04:35:19.117Z,4.62
2018-12-05T04:36:19.099Z,4.65
2018-12-05T04:37:19.087Z,4.68
2018-12-05T04:38:19.102Z,4.65
2018-12-05T04:39:19.091Z,4.67
2018-12-05T04:40:19.052Z,4.65
2018-12-05T04:41:19.042Z,4.62
2018-12-05T04:42:19.056Z,4.62
2018-12-05T04:43:19.073Z,4.54
2018-12-05T04:44:19.010Z,4.56
2018-12-05T04:45:18.999Z,4.54
2018-12-05T04:46:18.990Z,4.62
2018-12-05T04:47:18.976Z,4.59
2018-12-05T04:48:18.991Z,4.61
2018-12-05T04:49:18.953Z,4.65
2018-12-05T04:50:18.949Z,4.64
2018-12-05T04:51:18.933Z,4.69
2018-12-05T04:52:18.935Z,4.62
2018-12-05T04:53:18.933Z,4.67
2018-12-05T04:54:18.894Z,4.67
2018-12-05T04:55:18.882Z,4.67
2018-12-05T04:56:18.871Z,4.62
2018-12-05T04:57:18.861Z,4.62
2018-12-05T04:58:18.882Z,4.67
2018-12-05T04:59:18.839Z,4.62
2018-12-05T05:00:18.829Z,4.62
2018-12-05T05:01:18.817Z,4.67
2018-12-05T05:02:18.805Z,4.64
2018-12-05T05:03:18.821Z,4.61
2018-12-05T05:04:18.787Z,4.64
2018-12-05T05:05:18.772Z,4.64
2018-12-05T05:06:18.761Z,4.59
2018-12-05T05:07:18.749Z,4.65
2018-12-05T05:08:18.739Z,4.64
2018-12-05T05:09:18.756Z,4.69
2018-12-05T05:10:18.715Z,4.65
2018-12-05T05:11:18.708Z,4.65
2018-12-05T05:12:18.691Z,4.68
2018-12-05T05:13:18.710Z,4.64
2018-12-05T05:14:18.669Z,4.71
2018-12-05T05:15:18.661Z,4.72
2018-12-05T05:16:18.646Z,4.69
2018-12-05T05:17:18.642Z,4.59
2018-12-05T05:18:18.626Z,4.59
2018-12-05T05:19:18.644Z,4.53
2018-12-05T05:20:18.607Z,4.51
2018-12-05T05:21:18.599Z,4.47
2018-12-05T05:22:18.580Z,4.44
2018-12-05T05:23:18.573Z,4.43
2018-12-05T05:24:18.585Z,4.46
2018-12-05T05:25:18.548Z,4.44
2018-12-05T05:26:18.542Z,4.49
2018-12-05T05:27:18.523Z,4.49
2018-12-05T05:28:18.513Z,4.49
2018-12-05T05:29:18.529Z,4.53
2018-12-05T05:30:18.493Z,4.44
2018-12-05T05:31:18.492Z,4.47
2018-12-05T05:32:18.468Z,4.47
2018-12-05T05:33:18.460Z,4.59
2018-12-05T05:34:18.469Z,4.56
2018-12-05T05:35:18.435Z,4.51
2018-12-05T05:36:18.424Z,4.43
2018-12-05T05:37:18.421Z,4.57
2018-12-05T05:38:18.402Z,4.62
2018-12-05T05:39:18.414Z,4.62
2018-12-05T05:40:18.377Z,4.61
2018-12-05T05:41:18.386Z,4.62
2018-12-05T05:42:18.353Z,4.61
2018-12-05T05:43:18.344Z,4.54
2018-12-05T05:44:18.367Z,4.62
2018-12-05T05:45:18.321Z,4.59
2018-12-05T05:46:18.310Z,4.68
2018-12-05T05:47:18.300Z,4.61
2018-12-05T05:48:18.293Z,4.61
2018-12-05T05:49:18.303Z,4.68
2018-12-05T05:50:18.265Z,4.64
2018-12-05T05:51:18.259Z,4.65
2018-12-05T05:52:18.242Z,4.68
2018-12-05T05:53:18.232Z,4.57
2018-12-05T05:54:18.245Z,4.61
2018-12-05T05:55:18.208Z,4.62
2018-12-05T05:56:18.198Z,4.62
2018-12-05T05:57:18.187Z,4.61
2018-12-05T05:58:18.178Z,4.56
2018-12-05T05:59:18.194Z,4.53
2018-12-05T06:00:18.155Z,4.56
2018-12-05T06:01:18.146Z,4.56
2018-12-05T06:02:18.130Z,4.53
2018-12-05T06:03:18.126Z,4.50
2018-12-05T06:04:18.141Z,4.49
2018-12-05T06:05:18.101Z,4.54
2018-12-05T06:06:18.098Z,4.49
2018-12-05T06:07:18.076Z,4.54
2018-12-05T06:08:18.063Z,4.61
2018-12-05T06:09:18.078Z,4.57
2018-12-05T06:10:18.050Z,4.65
2018-12-05T06:11:18.031Z,4.68
2018-12-05T06:12:18.033Z,4.64
2018-12-05T06:13:18.065Z,4.61
2018-12-05T06:14:18.000Z,4.64
2018-12-05T06:15:18.014Z,4.65
2018-12-05T06:16:17.984Z,4.69
2018-12-05T06:17:17.964Z,4.65
2018-12-05T06:18:17.957Z,4.74
2018-12-05T06:19:17.951Z,4.67
2018-12-05T06:20:17.966Z,4.64
2018-12-05T06:21:17.919Z,4.62
2018-12-05T06:22:17.910Z,4.69
2018-12-05T06:23:17.899Z,4.67
2018-12-05T06:24:17.896Z,4.74
2018-12-05T06:25:17.897Z,4.75
2018-12-05T06:26:17.866Z,4.68
2018-12-05T06:27:17.856Z,4.69
2018-12-05T06:28:17.838Z,4.75
2018-12-05T06:29:17.836Z,4.75
2018-12-05T06:30:17.851Z,4.71
2018-12-05T06:31:17.805Z,4.75
2018-12-05T06:32:17.795Z,4.67
2018-12-05T06:33:17.784Z,4.68
2018-12-05T06:34:17.776Z,4.72
2018-12-05T06:35:17.789Z,4.69
2018-12-05T06:36:17.750Z,4.77
2018-12-05T06:37:17.738Z,4.84
2018-12-05T06:38:17.730Z,4.79
2018-12-05T06:39:17.719Z,4.80
2018-12-05T06:40:17.730Z,4.67
2018-12-05T06:41:17.693Z,4.65
2018-12-05T06:42:17.684Z,4.67
2018-12-05T06:43:17.668Z,4.68
2018-12-05T06:44:17.664Z,4.67
2018-12-05T06:45:17.678Z,4.61
2018-12-05T06:46:17.638Z,4.61
2018-12-05T06:47:17.627Z,4.61
2018-12-05T06:48:17.617Z,4.64
2018-12-05T06:49:17.603Z,4.61
2018-12-05T06:50:17.622Z,4.67
2018-12-05T06:51:17.582Z,4.65
2018-12-05T06:52:17.569Z,4.59
2018-12-05T06:53:17.562Z,4.61
2018-12-05T06:54:17.563Z,4.51
2018-12-05T06:55:17.560Z,4.50
2018-12-05T06:56:17.525Z,4.51
2018-12-05T06:57:17.514Z,4.47
2018-12-05T06:58:17.502Z,4.56
2018-12-05T06:59:17.495Z,4.61
2018-12-05T07:00:17.516Z,4.64
2018-12-05T07:01:17.472Z,4.62
2018-12-05T07:02:17.457Z,4.62
2018-12-05T07:03:17.453Z,4.65
2018-12-05T07:04:17.434Z,4.65
2018-12-05T07:05:17.447Z,4.68
2018-12-05T07:06:17.418Z,4.72
2018-12-05T07:07:17.730Z,4.75
2018-12-05T07:08:17.392Z,4.71
2018-12-05T07:09:17.385Z,4.80
2018-12-05T07:10:17.392Z,4.68
2018-12-05T07:11:17.361Z,4.71
2018-12-05T07:12:17.351Z,4.68
2018-12-05T07:13:17.337Z,4.69
2018-12-05T07:14:17.326Z,4.67
2018-12-05T07:15:17.347Z,4.68
2018-12-05T07:16:17.301Z,4.68
2018-12-05T07:17:17.287Z,4.69
2018-12-05T07:18:17.286Z,4.74
2018-12-05T07:19:17.267Z,4.75
2018-12-05T07:20:17.285Z,4.69
2018-12-05T07:21:17.244Z,4.68
2018-12-05T07:22:17.233Z,4.77
2018-12-05T07:23:17.229Z,4.67
2018-12-05T07:24:17.209Z,4.69
2018-12-05T07:25:17.227Z,4.75
2018-12-05T07:26:17.194Z,4.79
2018-12-05T07:27:17.173Z,4.68
2018-12-05T07:28:17.163Z,4.84
2018-12-05T07:29:17.153Z,4.84
2018-12-05T07:30:17.168Z,4.80
2018-12-05T07:31:17.138Z,4.90
2018-12-05T07:32:17.119Z,4.93
2018-12-05T07:33:17.114Z,4.88
2018-12-05T07:34:17.099Z,4.91
2018-12-05T07:35:17.100Z,4.94
2018-12-05T07:36:17.103Z,4.91
2018-12-05T07:37:17.063Z,5.02
2018-12-05T07:38:19.575Z,4.96
2018-12-05T07:39:17.043Z,4.93
2018-12-05T07:40:17.030Z,4.93
2018-12-05T07:41:17.046Z,4.97
2018-12-05T07:42:17.006Z,4.93
2018-12-05T07:43:17.050Z,4.93
2018-12-05T07:44:16.989Z,4.90
2018-12-05T07:45:16.977Z,4.96
2018-12-05T07:46:17.002Z,4.90
2018-12-05T07:47:16.955Z,4.94
2018-12-05T07:48:16.940Z,5.02
2018-12-05T07:49:16.936Z,5.04
2018-12-05T07:50:16.919Z,4.91
2018-12-05T07:51:16.928Z,4.97
2018-12-05T07:52:16.899Z,4.93
2018-12-05T07:53:16.891Z,4.93
2018-12-05T07:54:16.879Z,4.91
2018-12-05T07:55:16.865Z,4.99
2018-12-05T07:56:16.876Z,5.01
2018-12-05T07:57:16.843Z,5.05
2018-12-05T07:58:16.831Z,4.97
2018-12-05T07:59:16.816Z,5.14
2018-12-05T08:00:16.809Z,5.04
2018-12-05T08:01:16.816Z,5.01
2018-12-05T08:02:16.787Z,5.05
2018-12-05T08:03:16.772Z,5.09
2018-12-05T08:04:16.763Z,5.05
2018-12-05T08:05:16.747Z,5.09
2018-12-05T08:06:16.761Z,5.09
2018-12-05T08:07:16.725Z,5.08
2018-12-05T08:08:16.718Z,5.09
2018-12-05T08:09:16.707Z,5.09
2018-12-05T08:10:16.695Z,5.12
2018-12-05T08:11:16.706Z,5.12
2018-12-05T08:12:16.679Z,5.12
2018-12-05T08:13:16.659Z,5.12
2018-12-05T08:14:16.647Z,5.19
2018-12-05T08:15:16.635Z,5.19
2018-12-05T08:16:16.649Z,5.19
2018-12-05T08:17:16.621Z,5.24
2018-12-05T08:18:16.605Z,5.23
2018-12-05T08:19:16.595Z,5.27
2018-12-05T08:20:16.581Z,5.29
2018-12-05T08:21:16.606Z,5.26
2018-12-05T08:22:16.635Z,5.20
2018-12-05T08:23:16.556Z,5.26
2018-12-05T08:24:16.535Z,5.29
2018-12-05T08:25:16.529Z,5.30
2018-12-05T08:26:16.538Z,5.29
2018-12-05T08:27:16.502Z,5.30
2018-12-05T08:28:16.502Z,5.38
2018-12-05T08:29:16.478Z,5.35
2018-12-05T08:30:16.469Z,5.45
2018-12-05T08:31:16.487Z,5.51
2018-12-05T08:32:16.447Z,5.48
2018-12-05T08:33:16.435Z,5.47
2018-12-05T08:34:16.428Z,5.56
2018-12-05T08:35:16.459Z,5.55
2018-12-05T08:36:16.431Z,5.44
2018-12-05T08:37:16.392Z,5.52
2018-12-05T08:38:16.384Z,5.56
2018-12-05T08:39:16.372Z,5.59
2018-12-05T08:40:16.358Z,5.58
2018-12-05T08:41:16.370Z,5.41
2018-12-05T08:42:16.342Z,5.51
2018-12-05T08:43:16.328Z,5.52
2018-12-05T08:44:16.316Z,5.55
2018-12-05T08:45:16.303Z,5.55
2018-12-05T08:46:16.320Z,5.60
2018-12-05T08:47:16.283Z,5.41
2018-12-05T08:48:16.269Z,5.55
2018-12-05T08:49:16.262Z,5.52
2018-12-05T08:50:16.251Z,5.49
2018-12-05T08:51:16.260Z,5.47
2018-12-05T08:52:16.225Z,5.49
2018-12-05T08:53:16.213Z,5.60
2018-12-05T08:54:21.130Z,5.51
2018-12-05T08:55:17.191Z,5.62
2018-12-05T08:56:16.210Z,5.56
2018-12-05T08:57:16.173Z,5.59
2018-12-05T08:58:16.159Z,5.62
2018-12-05T08:59:16.148Z,5.60
2018-12-05T09:00:16.138Z,5.63
2018-12-05T09:01:16.151Z,5.60
2018-12-05T09:02:16.123Z,5.67
2018-12-05T09:03:16.106Z,5.70
2018-12-05T09:04:16.126Z,5.63
2018-12-05T09:05:16.083Z,5.66
2018-12-05T09:06:16.095Z,5.66
2018-12-05T09:07:16.071Z,5.59
2018-12-05T09:08:16.060Z,5.73
2018-12-05T09:09:16.040Z,5.67
2018-12-05T09:10:16.025Z,5.69
2018-12-05T09:11:16.047Z,5.77
2018-12-05T09:12:16.021Z,5.85
2018-12-05T09:13:15.994Z,5.90
2018-12-05T09:14:15.983Z,5.93
2018-12-05T09:15:15.977Z,5.92
2018-12-05T09:16:15.982Z,5.96
2018-12-05T09:17:15.955Z,5.99
2018-12-05T09:18:15.939Z,5.99
2018-12-05T09:19:15.923Z,6.03
2018-12-05T09:20:15.914Z,6.05
2018-12-05T09:21:15.929Z,5.98
2018-12-05T09:22:15.905Z,6.01
2018-12-05T09:23:15.963Z,5.99
2018-12-05T09:24:15.865Z,6.02
2018-12-05T09:25:15.857Z,6.01
2018-12-05T09:26:15.872Z,6.05
2018-12-05T09:27:15.845Z,6.13
2018-12-05T09:28:15.818Z,6.17
2018-12-05T09:29:15.807Z,6.08
2018-12-05T09:30:15.811Z,6.10
2018-12-05T09:31:15.788Z,6.16
2018-12-05T09:32:15.801Z,6.24
2018-12-05T09:33:15.768Z,6.27
2018-12-05T09:34:15.751Z,6.20
2018-12-05T09:35:15.739Z,6.28
2018-12-05T09:36:15.732Z,6.27
2018-12-05T09:37:15.759Z,6.21
2018-12-05T09:38:15.730Z,6.20
2018-12-05T09:39:15.710Z,6.24
2018-12-05T09:40:15.682Z,6.25
2018-12-05T09:41:15.673Z,6.27
2018-12-05T09:42:15.688Z,6.30
2018-12-05T09:43:15.647Z,6.25
2018-12-05T09:44:15.646Z,6.33
2018-12-05T09:45:15.625Z,6.33
2018-12-05T09:46:15.626Z,6.28
2018-12-05T09:47:15.971Z,6.30
2018-12-05T09:48:15.595Z,6.32
2018-12-05T09:49:15.593Z,6.28
2018-12-05T09:50:15.574Z,6.35
2018-12-05T09:51:15.581Z,6.38
2018-12-05T09:52:15.656Z,6.48
2018-12-05T09:53:17.128Z,6.43
2018-12-05T09:54:15.527Z,6.40
2018-12-05T09:55:15.514Z,6.43
2018-12-05T09:56:15.504Z,6.38
2018-12-05T09:57:15.516Z,6.50
2018-12-05T09:58:15.483Z,6.50
2018-12-05T09:59:15.471Z,6.54
2018-12-05T10:00:15.459Z,6.45
2018-12-05T10:01:15.457Z,6.51
2018-12-05T10:02:15.461Z,6.48
2018-12-05T10:03:15.447Z,6.54
2018-12-05T10:04:15.414Z,6.60
2018-12-05T10:05:15.430Z,6.53
2018-12-05T10:06:15.390Z,6.64
2018-12-05T10:07:15.400Z,6.64
2018-12-05T10:08:15.368Z,6.68
2018-12-05T10:09:15.356Z,6.71
2018-12-05T10:10:15.378Z,6.68
2018-12-05T10:11:15.334Z,6.73
2018-12-05T10:12:15.350Z,6.64
2018-12-05T10:13:15.371Z,6.68
2018-12-05T10:14:15.294Z,6.71
2018-12-05T10:15:15.282Z,6.69
2018-12-05T10:16:15.371Z,6.73
2018-12-05T10:17:15.288Z,6.69
2018-12-05T10:18:15.250Z,6.71
2018-12-05T10:19:15.242Z,6.75
2018-12-05T10:20:15.230Z,6.72
2018-12-05T10:21:15.216Z,6.72
2018-12-05T10:22:15.228Z,6.71
2018-12-05T10:23:15.196Z,6.71
2018-12-05T10:24:15.186Z,6.75
2018-12-05T10:25:15.180Z,6.81
2018-12-05T10:26:15.159Z,6.73
2018-12-05T10:27:15.187Z,6.76
2018-12-05T10:28:15.144Z,6.79
2018-12-05T10:29:15.127Z,6.73
2018-12-05T10:30:15.129Z,6.75
2018-12-05T10:31:15.177Z,6.81
2018-12-05T10:32:15.118Z,6.78
2018-12-05T10:33:15.082Z,6.82
2018-12-05T10:34:15.070Z,6.81
2018-12-05T10:35:15.064Z,6.86
2018-12-05T10:36:15.066Z,6.82
2018-12-05T10:37:15.063Z,6.79
2018-12-05T10:38:15.025Z,6.76
2018-12-05T10:39:15.014Z,6.75
2018-12-05T10:40:15.085Z,6.81
2018-12-05T10:41:14.993Z,6.83
2018-12-05T10:42:15.006Z,6.79
2018-12-05T10:43:14.970Z,6.83
2018-12-05T10:44:14.957Z,6.81
2018-12-05T10:45:14.946Z,6.79
2018-12-05T10:46:14.947Z,6.87
2018-12-05T10:47:14.949Z,6.76
2018-12-05T10:48:14.911Z,6.79
2018-12-05T10:49:14.897Z,6.87
2018-12-05T10:50:14.887Z,6.90
2018-12-05T10:51:14.896Z,6.96
2018-12-05T10:52:14.887Z,7.05
2018-12-05T10:53:15.019Z,7.01
2018-12-05T10:54:14.852Z,6.97
2018-12-05T10:55:14.853Z,6.99
2018-12-05T10:56:14.836Z,7.07
2018-12-05T10:57:14.835Z,7.08
2018-12-05T10:58:14.795Z,7.05
2018-12-05T10:59:14.789Z,7.07
2018-12-05T11:00:14.781Z,7.07
2018-12-05T11:01:14.760Z,6.93
2018-12-05T11:02:14.776Z,6.99
2018-12-05T11:03:14.750Z,7.00
2018-12-05T11:04:14.738Z,7.04
2018-12-05T11:05:14.758Z,7.15
2018-12-05T11:06:14.733Z,7.11
2018-12-05T11:07:14.730Z,7.08
2018-12-05T11:08:14.694Z,7.09
2018-12-05T11:09:14.673Z,6.99
2018-12-05T11:10:14.662Z,7.05
2018-12-05T11:11:14.648Z,7.04
2018-12-05T11:12:14.646Z,7.04
2018-12-05T11:13:14.666Z,7.08
2018-12-05T11:14:14.619Z,7.05
2018-12-05T11:15:14.607Z,7.04
2018-12-05T11:16:14.591Z,7.11
2018-12-05T11:17:14.584Z,7.04
2018-12-05T11:18:14.593Z,7.11
2018-12-05T11:19:14.565Z,7.14
2018-12-05T11:20:14.548Z,7.21
2018-12-05T11:21:14.548Z,7.16
2018-12-05T11:22:14.577Z,7.24
2018-12-05T11:23:14.541Z,7.16
2018-12-05T11:24:14.506Z,7.24
2018-12-05T11:25:14.494Z,7.33
2018-12-05T11:26:14.485Z,7.30
2018-12-05T11:27:14.467Z,7.27
2018-12-05T11:28:14.483Z,7.34
2018-12-05T11:29:14.448Z,7.42
2018-12-05T11:30:14.434Z,7.42
2018-12-05T11:31:14.425Z,7.34
2018-12-05T11:32:14.416Z,7.58
2018-12-05T11:33:14.432Z,7.57
2018-12-05T11:34:14.391Z,7.57
2018-12-05T11:35:14.379Z,7.57
2018-12-05T11:36:14.366Z,7.62
2018-12-05T11:37:14.456Z,7.63
2018-12-05T11:38:14.371Z,7.66
2018-12-05T11:39:14.357Z,7.69
2018-12-05T11:40:14.325Z,7.71
2018-12-05T11:41:14.341Z,7.69
2018-12-05T11:42:14.346Z,7.66
2018-12-05T11:43:14.331Z,7.60
2018-12-05T11:44:14.278Z,7.67
2018-12-05T11:45:14.295Z,7.67
2018-12-05T11:46:14.280Z,7.71
2018-12-05T11:47:14.248Z,7.67
2018-12-05T11:48:14.264Z,7.62
2018-12-05T11:49:14.234Z,7.69
2018-12-05T11:50:14.211Z,7.71
2018-12-05T11:51:14.201Z,7.76
2018-12-05T11:52:14.199Z,7.71
2018-12-05T11:53:14.201Z,7.69
2018-12-05T11:54:14.165Z,7.86
2018-12-05T11:55:14.153Z,7.84
2018-12-05T11:56:14.147Z,7.82
2018-12-05T11:57:14.132Z,7.95
2018-12-05T11:58:14.148Z,7.88
2018-12-05T11:59:14.108Z,7.94
2018-12-05T12:00:14.148Z,7.94
2018-12-05T12:01:14.086Z,7.86
2018-12-05T12:02:14.076Z,7.88
2018-12-05T12:03:14.116Z,7.91
2018-12-05T12:04:14.070Z,7.91
2018-12-05T12:05:14.041Z,7.96
2018-12-05T12:06:14.029Z,7.99
2018-12-05T12:07:14.017Z,7.86
2018-12-05T12:08:14.032Z,7.95
2018-12-05T12:09:13.996Z,7.96
2018-12-05T12:10:13.987Z,7.96
2018-12-05T12:11:13.978Z,7.96
2018-12-05T12:12:13.964Z,8.02
2018-12-05T12:13:13.979Z,8.03
2018-12-05T12:14:13.942Z,7.94
2018-12-05T12:15:13.933Z,8.00
2018-12-05T12:16:13.918Z,7.95
2018-12-05T12:17:13.906Z,8.02
2018-12-05T12:18:13.904Z,8.02
2018-12-05T12:19:13.911Z,8.06
2018-12-05T12:20:13.905Z,8.03
2018-12-05T12:21:13.883Z,8.14
2018-12-05T12:22:13.849Z,8.21
2018-12-05T12:23:13.840Z,8.20
2018-12-05T12:24:13.854Z,8.24
2018-12-05T12:25:13.818Z,8.17
2018-12-05T12:26:13.854Z,8.27
2018-12-05T12:27:13.793Z,8.31
2018-12-05T12:28:13.786Z,8.40
2018-12-05T12:29:13.826Z,8.40
2018-12-05T12:30:16.074Z,8.45
2018-12-05T12:31:13.747Z,8.55
2018-12-05T12:32:13.740Z,8.57
2018-12-05T12:33:13.736Z,8.63
2018-12-05T12:34:13.738Z,8.67
2018-12-05T12:35:13.731Z,8.73
2018-12-05T12:36:13.692Z,8.73
2018-12-05T12:37:13.681Z,8.78
2018-12-05T12:38:13.681Z,8.75
2018-12-05T12:39:13.685Z,8.76
2018-12-05T12:40:13.647Z,8.76
2018-12-05T12:41:13.637Z,8.68
2018-12-05T12:42:13.638Z,8.73
2018-12-05T12:43:13.613Z,8.75
2018-12-05T12:44:13.651Z,8.73
2018-12-05T12:45:13.665Z,8.58
2018-12-05T12:46:13.587Z,8.57
2018-12-05T12:47:13.565Z,8.60
2018-12-05T12:48:13.593Z,8.52
2018-12-05T12:49:13.573Z,8.47
2018-12-05T12:50:13.535Z,8.55
2018-12-05T12:51:13.530Z,8.52
2018-12-05T12:52:13.508Z,8.54
2018-12-05T12:53:13.554Z,8.50
2018-12-05T12:54:13.517Z,8.50
2018-12-05T12:55:13.497Z,8.50
2018-12-05T12:56:13.465Z,8.47
2018-12-05T12:57:13.452Z,8.40
2018-12-05T12:58:13.450Z,8.37
2018-12-05T12:59:13.460Z,8.45
2018-12-05T13:00:13.463Z,8.43
2018-12-05T13:01:13.413Z,8.50
2018-12-05T13:02:13.409Z,8.55
2018-12-05T13:03:13.388Z,8.55
2018-12-05T13:04:13.400Z,8.54
2018-12-05T13:05:13.374Z,8.60
2018-12-05T13:06:13.353Z,8.60
2018-12-05T13:07:13.347Z,8.61
2018-12-05T13:08:13.333Z,8.60
2018-12-05T13:09:13.349Z,8.61
2018-12-05T13:10:13.323Z,8.61
2018-12-05T13:11:13.301Z,8.58
2018-12-05T13:12:13.292Z,8.50
2018-12-05T13:13:13.274Z,8.50
2018-12-05T13:14:13.287Z,8.54
2018-12-05T13:15:13.255Z,8.50
2018-12-05T13:16:13.256Z,8.47
2018-12-05T13:17:13.231Z,8.47
2018-12-05T13:18:13.224Z,8.42